DAL215 LIRF-KATL
Flight info
| Callsign | DAL215 |
|---|---|
| Flight time | N/A |
| Altitude | 36000 |
| Route | PODOX DCT TOBGA DCT DOBIM DCT PIGOS DCT BODRU DCT KOTIT DCT ETREK DCT NOQAS DCT LERGA DCT VALKU/N0484F370 DCT PECNO DCT LMG/N0489F380 DCT MANAK UT183 BAGAD DCT LARLA DCT RATKA/M084F380 DCT SOMAX/M084F390 DCT 51N020W 51N030W 51N040W 50N050W DCT ELSIR/N0495F400 N402C ALLEX DCT KAYCC DCT KYLOH DCT BAF Q448 PTW J48 MOL DCT FLASK OZZZI1 |
| Aircraft | A359/H-SDE2E3GHIJ3J4J5LM1ORWXY/LB1D1 |
Departure
| Time | N/A |
|---|---|
| Airport | Rome–Fiumicino Leonardo da Vinci International Airport (LIRF) |
Arrival
| Time | 2026-05-04 13:15 |
|---|---|
| Airport | Hartsfield Jackson Atlanta International Airport (KATL) |
| Time | Latitude | Longitude | Altitude | Speed | Heading |
|---|---|---|---|---|---|
| 2026-05-04 12:34 | 36.14260 | -81.42125 | 36074 ft | 388 kts | 234° |
| 2026-05-04 12:34 | 36.10447 | -81.46862 | 36061 ft | 388 kts | 234° |
| 2026-05-04 12:35 | 36.06664 | -81.51552 | 36082 ft | 388 kts | 234° |
| 2026-05-04 12:35 | 36.02844 | -81.56283 | 36097 ft | 388 kts | 234° |
| 2026-05-04 12:36 | 35.99023 | -81.61006 | 36118 ft | 388 kts | 234° |
| 2026-05-04 12:36 | 35.95194 | -81.65731 | 36140 ft | 388 kts | 234° |
| 2026-05-04 12:37 | 35.91367 | -81.70449 | 36146 ft | 388 kts | 233° |
| 2026-05-04 12:37 | 35.87554 | -81.75143 | 36137 ft | 389 kts | 233° |
| 2026-05-04 12:38 | 35.83728 | -81.79846 | 36129 ft | 389 kts | 233° |
| 2026-05-04 12:38 | 35.79888 | -81.84560 | 36115 ft | 389 kts | 233° |
| 2026-05-04 12:39 | 35.76031 | -81.89207 | 36096 ft | 390 kts | 233° |
| 2026-05-04 12:39 | 35.72137 | -81.93867 | 36083 ft | 390 kts | 232° |
| 2026-05-04 12:40 | 35.68247 | -81.98519 | 36081 ft | 390 kts | 232° |
| 2026-05-04 12:40 | 35.66311 | -82.00829 | 35733 ft | 386 kts | 232° |
| 2026-05-04 12:40 | 35.64371 | -82.03150 | 34917 ft | 394 kts | 232° |
| 2026-05-04 12:40 | 35.62417 | -82.05488 | 34128 ft | 401 kts | 232° |
| 2026-05-04 12:41 | 35.60400 | -82.07897 | 33210 ft | 408 kts | 232° |
| 2026-05-04 12:41 | 35.58353 | -82.10337 | 32334 ft | 414 kts | 232° |
| 2026-05-04 12:41 | 35.56273 | -82.12809 | 31660 ft | 415 kts | 231° |
| 2026-05-04 12:41 | 35.54198 | -82.15268 | 31071 ft | 414 kts | 231° |
| 2026-05-04 12:42 | 35.52133 | -82.17717 | 30512 ft | 412 kts | 231° |
| 2026-05-04 12:42 | 35.50067 | -82.20164 | 29933 ft | 410 kts | 231° |
| 2026-05-04 12:42 | 35.48024 | -82.22579 | 29345 ft | 407 kts | 231° |
| 2026-05-04 12:42 | 35.45985 | -82.24991 | 28785 ft | 404 kts | 231° |
| 2026-05-04 12:43 | 35.43968 | -82.27382 | 28206 ft | 402 kts | 231° |
| 2026-05-04 12:43 | 35.41995 | -82.29750 | 27670 ft | 399 kts | 231° |
| 2026-05-04 12:43 | 35.40042 | -82.32157 | 27157 ft | 396 kts | 231° |
| 2026-05-04 12:43 | 35.38121 | -82.34543 | 26650 ft | 393 kts | 231° |
| 2026-05-04 12:44 | 35.36205 | -82.36923 | 26151 ft | 391 kts | 231° |
| 2026-05-04 12:44 | 35.34293 | -82.39298 | 25652 ft | 388 kts | 231° |
| 2026-05-04 12:44 | 35.32400 | -82.41646 | 25152 ft | 386 kts | 231° |
| 2026-05-04 12:44 | 35.30516 | -82.43983 | 24658 ft | 384 kts | 231° |
| 2026-05-04 12:45 | 35.28650 | -82.46295 | 24176 ft | 382 kts | 231° |
| 2026-05-04 12:45 | 35.26791 | -82.48599 | 23683 ft | 380 kts | 231° |
| 2026-05-04 12:45 | 35.24929 | -82.50904 | 23097 ft | 378 kts | 231° |
| 2026-05-04 12:45 | 35.23093 | -82.53176 | 22535 ft | 375 kts | 231° |
| 2026-05-04 12:46 | 35.21276 | -82.55419 | 21973 ft | 373 kts | 231° |
| 2026-05-04 12:46 | 35.19462 | -82.57660 | 21445 ft | 370 kts | 230° |
| 2026-05-04 12:46 | 35.17647 | -82.59900 | 20907 ft | 368 kts | 230° |
| 2026-05-04 12:46 | 35.15844 | -82.62113 | 20380 ft | 366 kts | 230° |
| 2026-05-04 12:47 | 35.14042 | -82.64282 | 19876 ft | 364 kts | 230° |
| 2026-05-04 12:47 | 35.12235 | -82.66443 | 19373 ft | 361 kts | 229° |
| 2026-05-04 12:47 | 35.10440 | -82.68581 | 18893 ft | 359 kts | 229° |
| 2026-05-04 12:47 | 35.08652 | -82.70707 | 18399 ft | 357 kts | 229° |
| 2026-05-04 12:48 | 35.06877 | -82.72815 | 17850 ft | 355 kts | 229° |
| 2026-05-04 12:48 | 35.05133 | -82.74882 | 17294 ft | 353 kts | 229° |
| 2026-05-04 12:48 | 35.03945 | -82.76287 | 16927 ft | 351 kts | 229° |
| 2026-05-04 12:48 | 35.02198 | -82.78352 | 16398 ft | 349 kts | 229° |
| 2026-05-04 12:49 | 35.00456 | -82.80416 | 15882 ft | 347 kts | 229° |
| 2026-05-04 12:49 | 34.98170 | -82.83124 | 15274 ft | 344 kts | 229° |
| 2026-05-04 12:49 | 34.97017 | -82.84486 | 15128 ft | 341 kts | 228° |
| 2026-05-04 12:49 | 34.95304 | -82.86508 | 15107 ft | 343 kts | 228° |
| 2026-05-04 12:50 | 34.93584 | -82.88531 | 15105 ft | 344 kts | 228° |
| 2026-05-04 12:50 | 34.91858 | -82.90541 | 15107 ft | 344 kts | 228° |
| 2026-05-04 12:50 | 34.90144 | -82.92530 | 15105 ft | 344 kts | 228° |
| 2026-05-04 12:50 | 34.88408 | -82.94543 | 15102 ft | 344 kts | 228° |
| 2026-05-04 12:51 | 34.86672 | -82.96555 | 15107 ft | 344 kts | 227° |
| 2026-05-04 12:51 | 34.84944 | -82.98554 | 15109 ft | 344 kts | 227° |
| 2026-05-04 12:51 | 34.83204 | -83.00567 | 15103 ft | 344 kts | 227° |
| 2026-05-04 12:51 | 34.81478 | -83.02564 | 15105 ft | 344 kts | 227° |
| 2026-05-04 12:52 | 34.79738 | -83.04574 | 15106 ft | 344 kts | 227° |
| 2026-05-04 12:52 | 34.77998 | -83.06583 | 15109 ft | 344 kts | 227° |
| 2026-05-04 12:52 | 34.76255 | -83.08594 | 15112 ft | 344 kts | 227° |
| 2026-05-04 12:52 | 34.74540 | -83.10572 | 15109 ft | 344 kts | 227° |
| 2026-05-04 12:53 | 34.72799 | -83.12575 | 15123 ft | 344 kts | 227° |
| 2026-05-04 12:53 | 34.71056 | -83.14568 | 15130 ft | 344 kts | 227° |
| 2026-05-04 12:53 | 34.69307 | -83.16568 | 15070 ft | 345 kts | 227° |
| 2026-05-04 12:53 | 34.67564 | -83.18566 | 15006 ft | 344 kts | 227° |
| 2026-05-04 12:54 | 34.65822 | -83.20565 | 15010 ft | 344 kts | 227° |
| 2026-05-04 12:54 | 34.64077 | -83.22568 | 15017 ft | 344 kts | 227° |
| 2026-05-04 12:54 | 34.62337 | -83.24564 | 15010 ft | 344 kts | 227° |
| 2026-05-04 12:54 | 34.60589 | -83.26571 | 15012 ft | 345 kts | 227° |
| 2026-05-04 12:55 | 34.58909 | -83.28497 | 15016 ft | 345 kts | 227° |
| 2026-05-04 12:55 | 34.57096 | -83.30575 | 15012 ft | 345 kts | 227° |
| 2026-05-04 12:55 | 34.55357 | -83.32570 | 15011 ft | 345 kts | 227° |
| 2026-05-04 12:55 | 34.53635 | -83.34551 | 15012 ft | 345 kts | 227° |
| 2026-05-04 12:56 | 34.51868 | -83.36582 | 15012 ft | 345 kts | 227° |
| 2026-05-04 12:56 | 34.50125 | -83.38586 | 15007 ft | 346 kts | 227° |
| 2026-05-04 12:56 | 34.48403 | -83.40566 | 15001 ft | 346 kts | 227° |
| 2026-05-04 12:56 | 34.46657 | -83.42572 | 14998 ft | 346 kts | 227° |
| 2026-05-04 12:57 | 34.44911 | -83.44575 | 15003 ft | 346 kts | 226° |
| 2026-05-04 12:57 | 34.43164 | -83.46581 | 15000 ft | 346 kts | 226° |
| 2026-05-04 12:57 | 34.41415 | -83.48586 | 15001 ft | 346 kts | 226° |
| 2026-05-04 12:57 | 34.39669 | -83.50587 | 15003 ft | 346 kts | 226° |
| 2026-05-04 12:58 | 34.37910 | -83.52601 | 14990 ft | 346 kts | 226° |
| 2026-05-04 12:58 | 34.36166 | -83.54596 | 14898 ft | 343 kts | 226° |
| 2026-05-04 12:58 | 34.34451 | -83.56556 | 14372 ft | 342 kts | 226° |
| 2026-05-04 12:58 | 34.32727 | -83.58535 | 13807 ft | 343 kts | 226° |
| 2026-05-04 12:59 | 34.30998 | -83.60524 | 13238 ft | 342 kts | 226° |
| 2026-05-04 12:59 | 34.29273 | -83.62493 | 12729 ft | 340 kts | 225° |
| 2026-05-04 12:59 | 34.27519 | -83.64406 | 12197 ft | 338 kts | 224° |
| 2026-05-04 12:59 | 34.25758 | -83.66285 | 11662 ft | 336 kts | 224° |
| 2026-05-04 13:00 | 34.24009 | -83.68146 | 11198 ft | 334 kts | 223° |
| 2026-05-04 13:00 | 34.22271 | -83.69987 | 11015 ft | 331 kts | 223° |
| 2026-05-04 13:00 | 34.20540 | -83.71828 | 10992 ft | 333 kts | 223° |
| 2026-05-04 13:00 | 34.18788 | -83.73689 | 10996 ft | 332 kts | 222° |
| 2026-05-04 13:01 | 34.17101 | -83.75450 | 11000 ft | 316 kts | 222° |
| 2026-05-04 13:01 | 34.15456 | -83.77171 | 10875 ft | 303 kts | 222° |
| 2026-05-04 13:01 | 34.13903 | -83.78807 | 10551 ft | 299 kts | 223° |
| 2026-05-04 13:01 | 34.12347 | -83.80459 | 10232 ft | 297 kts | 223° |
| 2026-05-04 13:02 | 34.10806 | -83.82111 | 9851 ft | 296 kts | 223° |
| 2026-05-04 13:02 | 34.09271 | -83.83767 | 9470 ft | 293 kts | 223° |
| 2026-05-04 13:02 | 34.07764 | -83.85401 | 9163 ft | 290 kts | 223° |
| 2026-05-04 13:02 | 34.06267 | -83.87021 | 8909 ft | 289 kts | 223° |
| 2026-05-04 13:03 | 34.04765 | -83.88641 | 8656 ft | 288 kts | 223° |
| 2026-05-04 13:03 | 34.03303 | -83.90207 | 8405 ft | 286 kts | 223° |
| 2026-05-04 13:03 | 34.01795 | -83.91840 | 8153 ft | 286 kts | 223° |
| 2026-05-04 13:03 | 34.00338 | -83.93412 | 7904 ft | 284 kts | 223° |
| 2026-05-04 13:04 | 33.98830 | -83.95011 | 7642 ft | 283 kts | 221° |
| 2026-05-04 13:04 | 33.97203 | -83.96300 | 7400 ft | 283 kts | 205° |
| 2026-05-04 13:04 | 33.95297 | -83.96808 | 7163 ft | 283 kts | 184° |
| 2026-05-04 13:04 | 33.93336 | -83.96770 | 7021 ft | 281 kts | 178° |
| 2026-05-04 13:05 | 33.91384 | -83.96649 | 7007 ft | 281 kts | 178° |
| 2026-05-04 13:05 | 33.89438 | -83.96532 | 7005 ft | 282 kts | 178° |
| 2026-05-04 13:05 | 33.87477 | -83.96419 | 7005 ft | 281 kts | 178° |
| 2026-05-04 13:05 | 33.85520 | -83.96317 | 7003 ft | 282 kts | 178° |
| 2026-05-04 13:06 | 33.83555 | -83.96224 | 6999 ft | 281 kts | 178° |
| 2026-05-04 13:06 | 33.81613 | -83.96136 | 7002 ft | 281 kts | 178° |
| 2026-05-04 13:06 | 33.79641 | -83.96051 | 6999 ft | 281 kts | 178° |
| 2026-05-04 13:06 | 33.77677 | -83.95966 | 6997 ft | 281 kts | 178° |
| 2026-05-04 13:07 | 33.75741 | -83.95936 | 6994 ft | 281 kts | 183° |
| 2026-05-04 13:07 | 33.73803 | -83.96271 | 7000 ft | 283 kts | 192° |
| 2026-05-04 13:07 | 33.71842 | -83.96786 | 7000 ft | 290 kts | 193° |
| 2026-05-04 13:07 | 33.69869 | -83.97324 | 6996 ft | 292 kts | 193° |
| 2026-05-04 13:08 | 33.67887 | -83.97869 | 6992 ft | 292 kts | 194° |
| 2026-05-04 13:08 | 33.65999 | -83.98711 | 6992 ft | 286 kts | 210° |
| 2026-05-04 13:08 | 33.64490 | -84.00211 | 6801 ft | 282 kts | 231° |
| 2026-05-04 13:08 | 33.63573 | -84.02244 | 6453 ft | 278 kts | 253° |
| 2026-05-04 13:09 | 33.63306 | -84.04521 | 6114 ft | 273 kts | 269° |
| 2026-05-04 13:09 | 33.63325 | -84.06752 | 5943 ft | 263 kts | 271° |
| 2026-05-04 13:09 | 33.63360 | -84.08858 | 5759 ft | 254 kts | 270° |
| 2026-05-04 13:09 | 33.63384 | -84.11012 | 5534 ft | 250 kts | 271° |
| 2026-05-04 13:10 | 33.63407 | -84.13060 | 5291 ft | 246 kts | 271° |
| 2026-05-04 13:10 | 33.63431 | -84.15135 | 4866 ft | 252 kts | 271° |
| 2026-05-04 13:10 | 33.63453 | -84.17238 | 4326 ft | 246 kts | 271° |
| 2026-05-04 13:10 | 33.63457 | -84.19252 | 3856 ft | 237 kts | 269° |
| 2026-05-04 13:11 | 33.63442 | -84.21197 | 3417 ft | 230 kts | 269° |
| 2026-05-04 13:11 | 33.63440 | -84.23096 | 2956 ft | 224 kts | 270° |
| 2026-05-04 13:11 | 33.63447 | -84.24886 | 2719 ft | 207 kts | 270° |
| 2026-05-04 13:11 | 33.63457 | -84.26521 | 2705 ft | 188 kts | 271° |
| 2026-05-04 13:12 | 33.63474 | -84.28065 | 2598 ft | 183 kts | 271° |
| 2026-05-04 13:12 | 33.63486 | -84.29586 | 2416 ft | 180 kts | 270° |
| 2026-05-04 13:12 | 33.63489 | -84.31042 | 2348 ft | 169 kts | 269° |
| 2026-05-04 13:12 | 33.63489 | -84.32427 | 2093 ft | 163 kts | 270° |
| 2026-05-04 13:13 | 33.63494 | -84.33725 | 1989 ft | 147 kts | 270° |
| 2026-05-04 13:13 | 33.63491 | -84.34918 | 1999 ft | 143 kts | 269° |
| 2026-05-04 13:13 | 33.63480 | -84.36124 | 1903 ft | 147 kts | 268° |
| 2026-05-04 13:13 | 33.63458 | -84.37360 | 1653 ft | 147 kts | 267° |
| 2026-05-04 13:14 | 33.63443 | -84.38566 | 1411 ft | 147 kts | 269° |
| 2026-05-04 13:14 | 33.63454 | -84.39798 | 1244 ft | 147 kts | 272° |
| 2026-05-04 13:14 | 33.63472 | -84.41031 | 1088 ft | 148 kts | 271° |
| 2026-05-04 13:14 | 33.63471 | -84.42231 | 1042 ft | 131 kts | 271° |
| 2026-05-04 13:15 | 33.63469 | -84.43035 | 1041 ft | 73 kts | 270° |
| 2026-05-04 13:15 | 33.63469 | -84.43488 | 1041 ft | 37 kts | 270° |
| 2026-05-04 13:15 | 33.63470 | -84.43739 | 1041 ft | 29 kts | 270° |
| 2026-05-04 13:15 | 33.63473 | -84.43970 | 1042 ft | 21 kts | 282° |
| 2026-05-04 13:16 | 33.63551 | -84.44012 | 1042 ft | 12 kts | 30° |
| 2026-05-04 13:16 | 33.63582 | -84.43908 | 1042 ft | 16 kts | 86° |
| 2026-05-04 13:16 | 33.63586 | -84.43753 | 1042 ft | 21 kts | 92° |
| 2026-05-04 13:16 | 33.63584 | -84.43557 | 1041 ft | 25 kts | 90° |
| 2026-05-04 13:17 | 33.63584 | -84.43334 | 1040 ft | 28 kts | 90° |
| 2026-05-04 13:17 | 33.63584 | -84.43086 | 1041 ft | 31 kts | 90° |
| 2026-05-04 13:17 | 33.63583 | -84.42817 | 1041 ft | 33 kts | 90° |
| 2026-05-04 13:17 | 33.63582 | -84.42534 | 1042 ft | 35 kts | 90° |
| 2026-05-04 13:18 | 33.63582 | -84.42252 | 1042 ft | 32 kts | 90° |
| 2026-05-04 13:18 | 33.63582 | -84.41981 | 1041 ft | 34 kts | 90° |
| 2026-05-04 13:18 | 33.63596 | -84.41804 | 1041 ft | 9 kts | 47° |
| 2026-05-04 13:18 | 33.63663 | -84.41807 | 1041 ft | 11 kts | 336° |
| 2026-05-04 13:19 | 33.63749 | -84.41824 | 1041 ft | 14 kts | 356° |
| 2026-05-04 13:19 | 33.63800 | -84.41833 | 1041 ft | 1 kts | 327° |
| 2026-05-04 13:19 | 33.63803 | -84.41851 | 1041 ft | 6 kts | 283° |
| 2026-05-04 13:19 | 33.63807 | -84.41914 | 1041 ft | 8 kts | 271° |
| 2026-05-04 13:20 | 33.63807 | -84.41928 | 1041 ft | 0 kts | 271° |